sensor_id;sensor_type;location;lat;lon;timestamp;pressure;altitude;pressure_sealevel;temperature;humidity
38275;BME280;24637;49.380;6.682;2022-07-29T00:02:06;99400.78;;;23.74;50.07
38275;BME280;24637;49.380;6.682;2022-07-29T00:04:34;99401.59;;;23.74;50.01
38275;BME280;24637;49.380;6.682;2022-07-29T00:06:59;99403.91;;;23.72;50.03
38275;BME280;24637;49.380;6.682;2022-07-29T00:09:25;99401.47;;;23.71;50.26
38275;BME280;24637;49.380;6.682;2022-07-29T00:11:50;99401.47;;;23.71;50.12
38275;BME280;24637;49.380;6.682;2022-07-29T00:14:16;99402.09;;;23.68;50.21
38275;BME280;24637;49.380;6.682;2022-07-29T00:16:41;99400.78;;;23.65;50.15
38275;BME280;24637;49.380;6.682;2022-07-29T00:19:06;99395.56;;;23.64;50.13
38275;BME280;24637;49.380;6.682;2022-07-29T00:21:32;99399.50;;;23.63;50.08
38275;BME280;24637;49.380;6.682;2022-07-29T00:23:57;99396.53;;;23.59;50.23
38275;BME280;24637;49.380;6.682;2022-07-29T00:26:22;99398.16;;;23.51;50.36
38275;BME280;24637;49.380;6.682;2022-07-29T00:28:48;99404.81;;;23.42;50.57
38275;BME280;24637;49.380;6.682;2022-07-29T00:31:14;99413.34;;;23.37;50.54
38275;BME280;24637;49.380;6.682;2022-07-29T00:33:40;99398.44;;;23.33;50.56
38275;BME280;24637;49.380;6.682;2022-07-29T00:36:05;99403.50;;;23.31;50.50
38275;BME280;24637;49.380;6.682;2022-07-29T00:38:31;99396.16;;;23.26;50.41
38275;BME280;24637;49.380;6.682;2022-07-29T00:40:56;99392.06;;;23.23;50.40
38275;BME280;24637;49.380;6.682;2022-07-29T00:43:21;99401.53;;;23.22;50.63
38275;BME280;24637;49.380;6.682;2022-07-29T00:45:47;99385.34;;;23.25;50.64
38275;BME280;24637;49.380;6.682;2022-07-29T00:48:12;99388.94;;;23.25;50.42
38275;BME280;24637;49.380;6.682;2022-07-29T00:50:38;99389.94;;;23.29;50.55
38275;BME280;24637;49.380;6.682;2022-07-29T00:53:06;99391.25;;;23.32;50.42
38275;BME280;24637;49.380;6.682;2022-07-29T00:55:32;99387.78;;;23.35;50.01
38275;BME280;24637;49.380;6.682;2022-07-29T00:57:58;99376.69;;;23.35;49.87
38275;BME280;24637;49.380;6.682;2022-07-29T01:00:25;99382.75;;;23.37;49.91
38275;BME280;24637;49.380;6.682;2022-07-29T01:02:53;99377.19;;;23.37;50.12
38275;BME280;24637;49.380;6.682;2022-07-29T01:05:23;99376.84;;;23.38;49.91
38275;BME280;24637;49.380;6.682;2022-07-29T01:07:52;99373.75;;;23.40;49.99
38275;BME280;24637;49.380;6.682;2022-07-29T01:10:19;99377.69;;;23.39;50.13
38275;BME280;24637;49.380;6.682;2022-07-29T01:12:47;99380.47;;;23.39;50.21
38275;BME280;24637;49.380;6.682;2022-07-29T01:15:14;99376.03;;;23.38;50.25
38275;BME280;24637;49.380;6.682;2022-07-29T01:17:46;99380.13;;;23.40;50.41
38275;BME280;24637;49.380;6.682;2022-07-29T01:23:13;99368.19;;;23.40;50.80
38275;BME280;24637;49.380;6.682;2022-07-29T01:31:07;99362.78;;;23.43;51.69
38275;BME280;24637;49.380;6.682;2022-07-29T01:33:40;99364.41;;;23.44;51.33
38275;BME280;24637;49.380;6.682;2022-07-29T01:36:32;99369.16;;;23.44;51.23
38275;BME280;24637;49.380;6.682;2022-07-29T01:39:11;99382.56;;;23.42;51.36
38275;BME280;24637;49.380;6.682;2022-07-29T01:41:43;99368.19;;;23.40;51.25
38275;BME280;24637;49.380;6.682;2022-07-29T01:44:22;99372.13;;;23.39;51.59
38275;BME280;24637;49.380;6.682;2022-07-29T01:46:56;99371.94;;;23.35;51.88
38275;BME280;24637;49.380;6.682;2022-07-29T01:49:28;99373.09;;;23.34;51.83
38275;BME280;24637;49.380;6.682;2022-07-29T01:52:01;99371.78;;;23.32;51.78
38275;BME280;24637;49.380;6.682;2022-07-29T01:54:41;99369.00;;;23.32;51.97
38275;BME280;24637;49.380;6.682;2022-07-29T01:57:09;99366.22;;;23.32;52.00
38275;BME280;24637;49.380;6.682;2022-07-29T01:59:37;99363.94;;;23.34;52.09
38275;BME280;24637;49.380;6.682;2022-07-29T02:02:04;99366.22;;;23.32;52.11
38275;BME280;24637;49.380;6.682;2022-07-29T02:04:33;99365.72;;;23.30;51.90
38275;BME280;24637;49.380;6.682;2022-07-29T02:07:02;99370.78;;;23.28;51.98
38275;BME280;24637;49.380;6.682;2022-07-29T02:09:30;99365.06;;;23.24;51.87
38275;BME280;24637;49.380;6.682;2022-07-29T02:11:57;99368.00;;;23.19;51.97
38275;BME280;24637;49.380;6.682;2022-07-29T02:14:24;99373.38;;;23.15;52.20
38275;BME280;24637;49.380;6.682;2022-07-29T02:16:52;99370.09;;;23.13;52.22
38275;BME280;24637;49.380;6.682;2022-07-29T02:19:21;99377.97;;;23.11;52.23
38275;BME280;24637;49.380;6.682;2022-07-29T02:21:48;99372.41;;;23.11;52.10
38275;BME280;24637;49.380;6.682;2022-07-29T02:24:15;99373.56;;;23.10;52.07
38275;BME280;24637;49.380;6.682;2022-07-29T02:26:44;99375.19;;;23.11;52.21
38275;BME280;24637;49.380;6.682;2022-07-29T02:29:11;99376.34;;;23.10;51.86
38275;BME280;24637;49.380;6.682;2022-07-29T02:31:39;99379.13;;;23.10;52.04
38275;BME280;24637;49.380;6.682;2022-07-29T02:34:07;99375.19;;;23.11;52.03
38275;BME280;24637;49.380;6.682;2022-07-29T02:36:33;99377.97;;;23.11;52.01
38275;BME280;24637;49.380;6.682;2022-07-29T02:39:00;99372.41;;;23.11;52.01
38275;BME280;24637;49.380;6.682;2022-07-29T02:41:30;99376.66;;;23.09;51.80
38275;BME280;24637;49.380;6.682;2022-07-29T02:44:04;99379.25;;;23.05;51.95
38275;BME280;24637;49.380;6.682;2022-07-29T02:46:34;99377.63;;;23.04;52.27
38275;BME280;24637;49.380;6.682;2022-07-29T02:49:15;99381.19;;;23.05;52.04
38275;BME280;24637;49.380;6.682;2022-07-29T02:51:49;99380.72;;;23.03;51.93
38275;BME280;24637;49.380;6.682;2022-07-29T02:54:33;99383.81;;;23.01;52.13
38275;BME280;24637;49.380;6.682;2022-07-29T02:57:09;99385.47;;;23.02;52.22
38275;BME280;24637;49.380;6.682;2022-07-29T02:59:37;99381.56;;;23.03;51.86
38275;BME280;24637;49.380;6.682;2022-07-29T03:02:08;99391.03;;;23.02;51.89
38275;BME280;24637;49.380;6.682;2022-07-29T03:04:38;99394.94;;;23.01;51.84
38275;BME280;24637;49.380;6.682;2022-07-29T03:07:05;99392.78;;;22.98;51.82
38275;BME280;24637;49.380;6.682;2022-07-29T03:09:31;99397.88;;;22.96;52.03
38275;BME280;24637;49.380;6.682;2022-07-29T03:11:57;99398.53;;;22.93;51.93
38275;BME280;24637;49.380;6.682;2022-07-29T03:14:23;99400.78;;;22.91;51.94
38275;BME280;24637;49.380;6.682;2022-07-29T03:16:49;99390.81;;;22.90;52.20
38275;BME280;24637;49.380;6.682;2022-07-29T03:19:16;99403.91;;;22.90;51.82
38275;BME280;24637;49.380;6.682;2022-07-29T03:21:42;99400.13;;;22.86;51.77
38275;BME280;24637;49.380;6.682;2022-07-29T03:24:07;99401.56;;;22.83;52.28
38275;BME280;24637;49.380;6.682;2022-07-29T03:26:33;99397.31;;;22.77;52.38
38275;BME280;24637;49.380;6.682;2022-07-29T03:28:59;99397.16;;;22.73;52.34
38275;BME280;24637;49.380;6.682;2022-07-29T03:31:24;99401.66;;;22.69;52.47
38275;BME280;24637;49.380;6.682;2022-07-29T03:33:50;99393.16;;;22.66;52.47
38275;BME280;24637;49.380;6.682;2022-07-29T03:36:15;99395.44;;;22.64;52.70
38275;BME280;24637;49.380;6.682;2022-07-29T03:38:42;99396.56;;;22.63;52.62
38275;BME280;24637;49.380;6.682;2022-07-29T03:41:10;99398.84;;;22.61;52.55
38275;BME280;24637;49.380;6.682;2022-07-29T03:43:38;99400.63;;;22.57;52.75
38275;BME280;24637;49.380;6.682;2022-07-29T03:46:07;99399.31;;;22.54;52.74
38275;BME280;24637;49.380;6.682;2022-07-29T03:48:36;99404.03;;;22.54;52.71
38275;BME280;24637;49.380;6.682;2022-07-29T03:51:02;99409.13;;;22.52;52.71
38275;BME280;24637;49.380;6.682;2022-07-29T03:53:28;99404.19;;;22.49;52.84
38275;BME280;24637;49.380;6.682;2022-07-29T03:55:58;99407.59;;;22.45;52.61
38275;BME280;24637;49.380;6.682;2022-07-29T03:58:26;99407.94;;;22.44;52.84
38275;BME280;24637;49.380;6.682;2022-07-29T04:00:52;99401.56;;;22.43;52.98
38275;BME280;24637;49.380;6.682;2022-07-29T04:03:17;99405.47;;;22.42;53.00
38275;BME280;24637;49.380;6.682;2022-07-29T04:05:43;99401.56;;;22.43;53.36
38275;BME280;24637;49.380;6.682;2022-07-29T04:08:08;99400.44;;;22.44;53.21
38275;BME280;24637;49.380;6.682;2022-07-29T04:10:34;99407.13;;;22.43;53.21
38275;BME280;24637;49.380;6.682;2022-07-29T04:12:59;99405.63;;;22.46;53.03
38275;BME280;24637;49.380;6.682;2022-07-29T04:15:25;99412.00;;;22.46;53.03
38275;BME280;24637;49.380;6.682;2022-07-29T04:17:50;99404.03;;;22.45;52.56
38275;BME280;24637;49.380;6.682;2022-07-29T04:20:16;99413.16;;;22.45;52.82
38275;BME280;24637;49.380;6.682;2022-07-29T04:22:41;99408.41;;;22.46;52.86
38275;BME280;24637;49.380;6.682;2022-07-29T04:25:07;99413.50;;;22.44;52.71
38275;BME280;24637;49.380;6.682;2022-07-29T04:27:33;99419.34;;;22.42;52.78
38275;BME280;24637;49.380;6.682;2022-07-29T04:29:58;99410.00;;;22.38;52.53
38275;BME280;24637;49.380;6.682;2022-07-29T04:32:24;99416.84;;;22.32;52.84
38275;BME280;24637;49.380;6.682;2022-07-29T04:34:50;99437.41;;;22.31;53.33
38275;BME280;24637;49.380;6.682;2022-07-29T04:37:15;99432.06;;;22.35;53.18
38275;BME280;24637;49.380;6.682;2022-07-29T04:39:40;99428.97;;;22.36;52.91
38275;BME280;24637;49.380;6.682;2022-07-29T04:42:06;99425.06;;;22.37;52.80
38275;BME280;24637;49.380;6.682;2022-07-29T04:44:31;99436.16;;;22.37;53.13
38275;BME280;24637;49.380;6.682;2022-07-29T04:46:57;99423.88;;;22.38;52.89
38275;BME280;24637;49.380;6.682;2022-07-29T04:49:26;99430.78;;;22.41;52.85
38275;BME280;24637;49.380;6.682;2022-07-29T04:51:52;99426.03;;;22.41;52.63
38275;BME280;24637;49.380;6.682;2022-07-29T04:54:17;99433.25;;;22.42;52.67
38275;BME280;24637;49.380;6.682;2022-07-29T04:56:43;99431.59;;;22.41;52.70
38275;BME280;24637;49.380;6.682;2022-07-29T04:59:08;99437.47;;;22.40;52.96
38275;BME280;24637;49.380;6.682;2022-07-29T05:01:34;99445.63;;;22.36;52.99
38275;BME280;24637;49.380;6.682;2022-07-29T05:04:02;99439.06;;;22.32;52.85
38275;BME280;24637;49.380;6.682;2022-07-29T05:06:27;99443.63;;;22.28;53.34
38275;BME280;24637;49.380;6.682;2022-07-29T05:08:53;99453.06;;;22.27;53.48
38275;BME280;24637;49.380;6.682;2022-07-29T05:11:18;99445.88;;;22.26;53.33
38275;BME280;24637;49.380;6.682;2022-07-29T05:13:43;99445.06;;;22.26;53.42
38275;BME280;24637;49.380;6.682;2022-07-29T05:16:09;99445.88;;;22.26;53.79
38275;BME280;24637;49.380;6.682;2022-07-29T05:18:34;99449.16;;;22.28;53.86
38275;BME280;24637;49.380;6.682;2022-07-29T05:21:00;99444.59;;;22.32;53.38
38275;BME280;24637;49.380;6.682;2022-07-29T05:23:25;99451.19;;;22.36;53.14
38275;BME280;24637;49.380;6.682;2022-07-29T05:25:50;99452.16;;;22.40;53.21
38275;BME280;24637;49.380;6.682;2022-07-29T05:28:16;99452.84;;;22.46;52.95
38275;BME280;24637;49.380;6.682;2022-07-29T05:30:44;99462.19;;;22.50;52.77
38275;BME280;24637;49.380;6.682;2022-07-29T05:33:10;99460.75;;;22.53;52.78
38275;BME280;24637;49.380;6.682;2022-07-29T05:35:35;99448.69;;;22.57;52.64
38275;BME280;24637;49.380;6.682;2022-07-29T05:38:02;99450.00;;;22.60;52.21
38275;BME280;24637;49.380;6.682;2022-07-29T05:40:27;99454.09;;;22.62;51.91
38275;BME280;24637;49.380;6.682;2022-07-29T05:42:53;99451.00;;;22.64;52.28
38275;BME280;24637;49.380;6.682;2022-07-29T05:45:18;99446.56;;;22.63;52.16
38275;BME280;24637;49.380;6.682;2022-07-29T05:47:44;99453.25;;;22.62;52.34
38275;BME280;24637;49.380;6.682;2022-07-29T05:50:09;99452.44;;;22.61;52.34
38275;BME280;24637;49.380;6.682;2022-07-29T05:52:34;99462.63;;;22.66;52.60
38275;BME280;24637;49.380;6.682;2022-07-29T05:55:00;99456.09;;;22.70;52.67
38275;BME280;24637;49.380;6.682;2022-07-29T05:57:29;99455.50;;;22.73;52.67
38275;BME280;24637;49.380;6.682;2022-07-29T05:59:57;99457.31;;;22.78;52.38
38275;BME280;24637;49.380;6.682;2022-07-29T06:02:23;99459.47;;;22.81;52.61
38275;BME280;24637;49.380;6.682;2022-07-29T06:04:48;99459.31;;;22.86;52.32
38275;BME280;24637;49.380;6.682;2022-07-29T06:07:14;99465.06;;;22.90;52.29
38275;BME280;24637;49.380;6.682;2022-07-29T06:09:41;99461.63;;;22.93;52.36
38275;BME280;24637;49.380;6.682;2022-07-29T06:12:07;99464.59;;;22.96;52.41
38275;BME280;24637;49.380;6.682;2022-07-29T06:14:32;99461.47;;;22.98;51.99
38275;BME280;24637;49.380;6.682;2022-07-29T06:16:57;99462.28;;;22.98;52.24
38275;BME280;24637;49.380;6.682;2022-07-29T06:19:23;99459.50;;;22.98;52.36
38275;BME280;24637;49.380;6.682;2022-07-29T06:21:48;99454.47;;;23.00;52.14
38275;BME280;24637;49.380;6.682;2022-07-29T06:24:15;99461.66;;;23.01;51.99
38275;BME280;24637;49.380;6.682;2022-07-29T06:26:41;99463.81;;;23.04;52.02
38275;BME280;24637;49.380;6.682;2022-07-29T06:29:07;99467.56;;;23.08;51.77
38275;BME280;24637;49.380;6.682;2022-07-29T06:31:33;99468.06;;;23.10;51.91
38275;BME280;24637;49.380;6.682;2022-07-29T06:33:58;99465.13;;;23.15;51.88
38275;BME280;24637;49.380;6.682;2022-07-29T06:36:24;99470.53;;;23.20;51.58
38275;BME280;24637;49.380;6.682;2022-07-29T06:38:49;99467.63;;;23.26;51.44
38275;BME280;24637;49.380;6.682;2022-07-29T06:41:15;99461.41;;;23.29;51.41
38275;BME280;24637;49.380;6.682;2022-07-29T06:43:42;99464.06;;;23.34;51.48
38275;BME280;24637;49.380;6.682;2022-07-29T06:46:10;99460.63;;;23.37;51.24
38275;BME280;24637;49.380;6.682;2022-07-29T06:48:37;99467.81;;;23.38;50.94
38275;BME280;24637;49.380;6.682;2022-07-29T06:51:03;99464.41;;;23.41;51.04
38275;BME280;24637;49.380;6.682;2022-07-29T06:53:32;99462.09;;;23.43;50.93
38275;BME280;24637;49.380;6.682;2022-07-29T06:55:58;99468.66;;;23.47;50.41
38275;BME280;24637;49.380;6.682;2022-07-29T06:58:24;99472.78;;;23.49;50.43
38275;BME280;24637;49.380;6.682;2022-07-29T07:00:51;99471.31;;;23.52;50.13
38275;BME280;24637;49.380;6.682;2022-07-29T07:03:17;99471.50;;;23.55;50.14
38275;BME280;24637;49.380;6.682;2022-07-29T07:05:43;99473.63;;;23.58;49.84
38275;BME280;24637;49.380;6.682;2022-07-29T07:08:08;99463.81;;;23.61;50.09
38275;BME280;24637;49.380;6.682;2022-07-29T07:10:34;99470.34;;;23.65;49.81
38275;BME280;24637;49.380;6.682;2022-07-29T07:13:00;99462.50;;;23.67;49.85
38275;BME280;24637;49.380;6.682;2022-07-29T07:15:25;99470.22;;;23.70;49.95
38275;BME280;24637;49.380;6.682;2022-07-29T07:17:51;99465.13;;;23.72;49.63
38275;BME280;24637;49.380;6.682;2022-07-29T07:20:17;99470.03;;;23.75;49.73
38275;BME280;24637;49.380;6.682;2022-07-29T07:22:43;99472.19;;;23.78;49.79
38275;BME280;24637;49.380;6.682;2022-07-29T07:25:08;99466.28;;;23.80;49.88
38275;BME280;24637;49.380;6.682;2022-07-29T07:27:34;99472.03;;;23.83;49.43
38275;BME280;24637;49.380;6.682;2022-07-29T07:30:00;99464.16;;;23.85;48.81
38275;BME280;24637;49.380;6.682;2022-07-29T07:32:25;99468.25;;;23.88;48.94
38275;BME280;24637;49.380;6.682;2022-07-29T07:34:50;99469.06;;;23.88;49.06
38275;BME280;24637;49.380;6.682;2022-07-29T07:37:18;99468.41;;;23.91;48.04
38275;BME280;24637;49.380;6.682;2022-07-29T07:39:45;99470.06;;;23.92;48.11
38275;BME280;24637;49.380;6.682;2022-07-29T07:42:11;99466.13;;;23.93;48.18
38275;BME280;24637;49.380;6.682;2022-07-29T07:44:38;99464.97;;;23.94;48.25
38275;BME280;24637;49.380;6.682;2022-07-29T07:47:04;99463.81;;;23.95;48.36
38275;BME280;24637;49.380;6.682;2022-07-29T07:49:29;99472.69;;;23.97;48.58
38275;BME280;24637;49.380;6.682;2022-07-29T07:51:55;99467.09;;;23.97;48.30
38275;BME280;24637;49.380;6.682;2022-07-29T07:54:20;99463.19;;;23.98;48.20
38275;BME280;24637;49.380;6.682;2022-07-29T07:56:45;99464.81;;;23.99;48.42
38275;BME280;24637;49.380;6.682;2022-07-29T07:59:14;99464.81;;;23.99;48.18
38275;BME280;24637;49.380;6.682;2022-07-29T08:01:39;99472.03;;;24.01;48.53
38275;BME280;24637;49.380;6.682;2022-07-29T08:04:08;99469.72;;;24.03;48.76
38275;BME280;24637;49.380;6.682;2022-07-29T08:06:34;99473.00;;;24.05;48.50
38275;BME280;24637;49.380;6.682;2022-07-29T08:09:03;99467.44;;;24.05;48.36
38275;BME280;24637;49.380;6.682;2022-07-29T08:11:32;99464.81;;;24.08;48.59
38275;BME280;24637;49.380;6.682;2022-07-29T08:13:58;99464.47;;;24.10;48.57
38275;BME280;24637;49.380;6.682;2022-07-29T08:16:23;99475.78;;;24.13;48.17
38275;BME280;24637;49.380;6.682;2022-07-29T08:18:50;99472.69;;;24.15;47.93
38275;BME280;24637;49.380;6.682;2022-07-29T08:21:17;99474.28;;;24.16;48.07
38275;BME280;24637;49.380;6.682;2022-07-29T08:23:45;99469.22;;;24.18;48.16
38275;BME280;24637;49.380;6.682;2022-07-29T08:26:43;99473.16;;;24.17;48.25
38275;BME280;24637;49.380;6.682;2022-07-29T08:29:09;99469.22;;;24.18;48.50
38275;BME280;24637;49.380;6.682;2022-07-29T08:31:36;99469.75;;;24.20;48.33
38275;BME280;24637;49.380;6.682;2022-07-29T08:34:02;99476.28;;;24.24;48.11
38275;BME280;24637;49.380;6.682;2022-07-29T08:36:28;99469.56;;;24.25;47.83
38275;BME280;24637;49.380;6.682;2022-07-29T08:38:54;99467.94;;;24.24;48.28
38275;BME280;24637;49.380;6.682;2022-07-29T08:41:19;99471.53;;;24.24;48.58
38275;BME280;24637;49.380;6.682;2022-07-29T08:43:46;99469.56;;;24.25;48.50
38275;BME280;24637;49.380;6.682;2022-07-29T08:46:11;99466.78;;;24.25;48.57
38275;BME280;24637;49.380;6.682;2022-07-29T08:48:38;99473.03;;;24.30;47.84
38275;BME280;24637;49.380;6.682;2022-07-29T08:51:06;99469.41;;;24.30;48.00
38275;BME280;24637;49.380;6.682;2022-07-29T08:53:33;99478.25;;;24.32;47.66
38275;BME280;24637;49.380;6.682;2022-07-29T08:55:59;99475.31;;;24.37;47.06
38275;BME280;24637;49.380;6.682;2022-07-29T08:58:31;99465.31;;;24.36;47.54
38275;BME280;24637;49.380;6.682;2022-07-29T09:01:01;99470.06;;;24.35;47.30
38275;BME280;24637;49.380;6.682;2022-07-29T09:03:30;99483.66;;;24.37;47.51
38275;BME280;24637;49.380;6.682;2022-07-29T09:05:58;99473.97;;;24.43;46.48
38275;BME280;24637;49.380;6.682;2022-07-29T09:08:24;99470.50;;;24.46;45.20
38275;BME280;24637;49.380;6.682;2022-07-29T09:10:50;99460.88;;;24.44;46.68
38275;BME280;24637;49.380;6.682;2022-07-29T09:13:16;99471.19;;;24.43;46.88
38275;BME280;24637;49.380;6.682;2022-07-29T09:15:41;99479.56;;;24.43;47.29
38275;BME280;24637;49.380;6.682;2022-07-29T09:18:07;99468.41;;;24.43;47.42
38275;BME280;24637;49.380;6.682;2022-07-29T09:20:32;99470.03;;;24.44;47.08
38275;BME280;24637;49.380;6.682;2022-07-29T09:23:16;99472.31;;;24.51;45.72
38275;BME280;24637;49.380;6.682;2022-07-29T09:25:42;99469.03;;;24.49;46.42
38275;BME280;24637;49.380;6.682;2022-07-29T09:30:33;99466.25;;;24.49;46.56
38275;BME280;24637;49.380;6.682;2022-07-29T09:33:00;99467.06;;;24.49;46.36
38275;BME280;24637;49.380;6.682;2022-07-29T09:35:27;99459.03;;;24.48;46.78
38275;BME280;24637;49.380;6.682;2022-07-29T09:37:52;99463.16;;;24.50;46.60
38275;BME280;24637;49.380;6.682;2022-07-29T09:40:23;99464.78;;;24.51;46.50
38275;BME280;24637;49.380;6.682;2022-07-29T09:42:49;99466.44;;;24.52;46.30
38275;BME280;24637;49.380;6.682;2022-07-29T09:45:35;99464.78;;;24.51;46.56
38275;BME280;24637;49.380;6.682;2022-07-29T09:48:15;99460.50;;;24.54;45.66
38275;BME280;24637;49.380;6.682;2022-07-29T09:50:44;99458.53;;;24.54;46.38
38275;BME280;24637;49.380;6.682;2022-07-29T09:53:11;99452.97;;;24.54;46.47
38275;BME280;24637;49.380;6.682;2022-07-29T09:55:49;99457.38;;;24.55;46.28
38275;BME280;24637;49.380;6.682;2022-07-29T09:58:19;99457.38;;;24.55;46.75
38275;BME280;24637;49.380;6.682;2022-07-29T10:00:46;99457.06;;;24.57;46.31
38275;BME280;24637;49.380;6.682;2022-07-29T10:03:12;99457.88;;;24.57;45.89
38275;BME280;24637;49.380;6.682;2022-07-29T10:05:38;99461.16;;;24.59;44.81
38275;BME280;24637;49.380;6.682;2022-07-29T10:08:04;99456.72;;;24.58;45.04
38275;BME280;24637;49.380;6.682;2022-07-29T10:10:33;99449.66;;;24.61;44.76
38275;BME280;24637;49.380;6.682;2022-07-29T10:13:01;99452.63;;;24.64;42.56
38275;BME280;24637;49.380;6.682;2022-07-29T10:15:29;99459.00;;;24.65;42.44
38275;BME280;24637;49.380;6.682;2022-07-29T10:17:56;99454.91;;;24.62;43.12
38275;BME280;24637;49.380;6.682;2022-07-29T10:20:23;99450.47;;;24.61;44.23
38275;BME280;24637;49.380;6.682;2022-07-29T10:22:50;99452.13;;;24.62;44.49
38275;BME280;24637;49.380;6.682;2022-07-29T10:25:16;99455.72;;;24.63;44.60
38275;BME280;24637;49.380;6.682;2022-07-29T10:27:43;99450.16;;;24.63;44.49
38275;BME280;24637;49.380;6.682;2022-07-29T10:30:10;99458.00;;;24.69;43.72
38275;BME280;24637;49.380;6.682;2022-07-29T10:35:43;99458.69;;;24.66;44.31
38275;BME280;24637;49.380;6.682;2022-07-29T10:38:37;99454.25;;;24.65;43.41
38275;BME280;24637;49.380;6.682;2022-07-29T10:41:16;99461.47;;;24.66;44.04
38275;BME280;24637;49.380;6.682;2022-07-29T10:43:57;99448.69;;;24.65;44.76
38275;BME280;24637;49.380;6.682;2022-07-29T10:46:24;99448.69;;;24.65;44.77
38275;BME280;24637;49.380;6.682;2022-07-29T10:49:12;99453.56;;;24.68;44.98
38275;BME280;24637;49.380;6.682;2022-07-29T10:52:09;99460.78;;;24.69;44.78
38275;BME280;24637;49.380;6.682;2022-07-29T11:05:06;99450.47;;;24.70;44.79
38275;BME280;24637;49.380;6.682;2022-07-29T11:07:35;99448.16;;;24.72;45.01
38275;BME280;24637;49.380;6.682;2022-07-29T11:15:10;99429.97;;;24.74;44.48
38275;BME280;24637;49.380;6.682;2022-07-29T11:20:47;99437.97;;;24.76;44.87
38275;BME280;24637;49.380;6.682;2022-07-29T11:23:32;99430.91;;;24.79;44.14
38275;BME280;24637;49.380;6.682;2022-07-29T11:31:45;99444.53;;;24.80;43.79
38275;BME280;24637;49.380;6.682;2022-07-29T11:34:28;99436.50;;;24.79;44.04
38275;BME280;24637;49.380;6.682;2022-07-29T11:47:33;99455.81;;;24.84;44.26
38275;BME280;24637;49.380;6.682;2022-07-29T11:50:01;99455.34;;;24.82;44.48
38275;BME280;24637;49.380;6.682;2022-07-29T11:52:41;99452.56;;;24.82;44.52
38275;BME280;24637;49.380;6.682;2022-07-29T11:55:15;99446.31;;;24.85;44.06
38275;BME280;24637;49.380;6.682;2022-07-29T11:57:49;99451.88;;;24.85;44.16
38275;BME280;24637;49.380;6.682;2022-07-29T12:02:50;99442.38;;;24.86;44.27
38275;BME280;24637;49.380;6.682;2022-07-29T12:05:18;99443.50;;;24.85;44.30
38275;BME280;24637;49.380;6.682;2022-07-29T12:07:44;99452.38;;;24.87;44.74
38275;BME280;24637;49.380;6.682;2022-07-29T12:10:10;99450.72;;;24.86;44.45
38275;BME280;24637;49.380;6.682;2022-07-29T12:12:35;99444.00;;;24.87;44.35
38275;BME280;24637;49.380;6.682;2022-07-29T12:15:12;99450.41;;;24.87;44.77
38275;BME280;24637;49.380;6.682;2022-07-29T12:17:37;99452.03;;;24.88;44.61
38275;BME280;24637;49.380;6.682;2022-07-29T12:20:04;99448.09;;;24.89;44.41
38275;BME280;24637;49.380;6.682;2022-07-29T12:22:33;99446.13;;;24.90;44.33
38275;BME280;24637;49.380;6.682;2022-07-29T12:25:06;99447.28;;;24.89;44.50
38275;BME280;24637;49.380;6.682;2022-07-29T12:27:32;99447.28;;;24.89;44.41
38275;BME280;24637;49.380;6.682;2022-07-29T12:29:59;99451.38;;;24.91;44.39
38275;BME280;24637;49.380;6.682;2022-07-29T12:32:38;99451.38;;;24.91;44.62
38275;BME280;24637;49.380;6.682;2022-07-29T12:35:09;99450.56;;;24.91;44.45
38275;BME280;24637;49.380;6.682;2022-07-29T12:37:38;99440.22;;;24.91;44.51
38275;BME280;24637;49.380;6.682;2022-07-29T12:40:05;99442.69;;;24.93;44.64
38275;BME280;24637;49.380;6.682;2022-07-29T12:42:31;99446.63;;;24.92;44.62
38275;BME280;24637;49.380;6.682;2022-07-29T12:44:59;99447.94;;;24.94;44.52
38275;BME280;24637;49.380;6.682;2022-07-29T12:47:25;99439.91;;;24.93;44.23
38275;BME280;24637;49.380;6.682;2022-07-29T12:50:07;99445.97;;;24.95;44.41
38275;BME280;24637;49.380;6.682;2022-07-29T12:52:34;99440.06;;;24.96;44.35
38275;BME280;24637;49.380;6.682;2022-07-29T12:55:00;99447.63;;;24.96;44.57
38275;BME280;24637;49.380;6.682;2022-07-29T12:57:26;99442.03;;;24.96;44.16
38275;BME280;24637;49.380;6.682;2022-07-29T13:02:26;99436.91;;;24.98;44.42
38275;BME280;24637;49.380;6.682;2022-07-29T13:04:59;99438.88;;;24.97;44.70
38275;BME280;24637;49.380;6.682;2022-07-29T13:07:26;99448.56;;;25.00;43.96
38275;BME280;24637;49.380;6.682;2022-07-29T13:09:52;99439.88;;;25.01;43.77
38275;BME280;24637;49.380;6.682;2022-07-29T13:12:18;99441.84;;;25.01;44.35
38275;BME280;24637;49.380;6.682;2022-07-29T13:14:47;99439.72;;;24.98;44.34
38275;BME280;24637;49.380;6.682;2022-07-29T13:17:15;99443.81;;;25.00;44.35
38275;BME280;24637;49.380;6.682;2022-07-29T13:19:46;99453.00;;;25.01;44.25
38275;BME280;24637;49.380;6.682;2022-07-29T13:22:15;99444.63;;;25.01;44.24
38275;BME280;24637;49.380;6.682;2022-07-29T13:24:48;99444.63;;;25.01;44.19
38275;BME280;24637;49.380;6.682;2022-07-29T13:27:18;99435.13;;;25.02;44.18
38275;BME280;24637;49.380;6.682;2022-07-29T13:29:45;99433.97;;;25.03;43.72
38275;BME280;24637;49.380;6.682;2022-07-29T13:32:11;99433.47;;;25.01;43.87
38275;BME280;24637;49.380;6.682;2022-07-29T13:34:37;99441.50;;;25.02;43.92
38275;BME280;24637;49.380;6.682;2022-07-29T13:37:02;99435.13;;;25.02;43.64
38275;BME280;24637;49.380;6.682;2022-07-29T13:39:27;99428.38;;;25.03;44.07
38275;BME280;24637;49.380;6.682;2022-07-29T13:41:53;99440.69;;;25.02;43.97
38275;BME280;24637;49.380;6.682;2022-07-29T13:44:18;99441.19;;;25.04;43.74
38275;BME280;24637;49.380;6.682;2022-07-29T13:46:44;99443.97;;;25.04;43.55
38275;BME280;24637;49.380;6.682;2022-07-29T13:49:09;99440.81;;;25.05;43.57
38275;BME280;24637;49.380;6.682;2022-07-29T13:51:36;99436.06;;;25.06;43.47
38275;BME280;24637;49.380;6.682;2022-07-29T13:54:02;99432.13;;;25.07;44.15
38275;BME280;24637;49.380;6.682;2022-07-29T13:56:30;99424.91;;;25.06;43.89
38275;BME280;24637;49.380;6.682;2022-07-29T13:58:56;99434.09;;;25.06;43.84